Time;durP1;ratioP1;P1;durP2;ratioP2;P2;SDS_P1;SDS_P2;PMS_P1;PMS_P2;Temp;Humidity;BMP_temperature;BMP_pressure;BME280_temperature;BME280_humidity;BME280_pressure;Samples;Min_cycle;Max_cycle;Signal;HPM_P1;HPM_P2
2022/04/22 00:02:02;;;;;;;11.82;7.32;;;;;;;;;;5039829;28;20030;-63
2022/04/22 00:04:28;;;;;;;12.95;7.90;;;;;;;;;;5030086;28;20049;-63
2022/04/22 00:06:53;;;;;;;13.57;8.15;;;;;;;;;;5012892;28;20179;-63
2022/04/22 00:09:19;;;;;;;14.68;8.02;;;;;;;;;;5020186;28;20432;-63
2022/04/22 00:11:44;;;;;;;13.25;8.38;;;;;;;;;;5041528;28;20033;-63
2022/04/22 00:14:09;;;;;;;15.15;9.07;;;;;;;;;;5029721;28;20778;-63
2022/04/22 00:16:35;;;;;;;15.65;8.07;;;;;;;;;;5022313;28;20033;-63
2022/04/22 00:19:01;;;;;;;12.52;8.15;;;;;;;;;;5027226;28;20116;-63
2022/04/22 00:21:26;;;;;;;16.13;8.30;;;;;;;;;;5046472;28;20056;-63
2022/04/22 00:23:52;;;;;;;13.05;8.50;;;;;;;;;;5021396;28;20121;-63
2022/04/22 00:26:18;;;;;;;14.55;9.02;;;;;;;;;;5033271;28;20044;-64
2022/04/22 00:28:44;;;;;;;18.17;8.35;;;;;;;;;;5021518;28;20039;-63
2022/04/22 00:31:09;;;;;;;14.88;8.50;;;;;;;;;;5014220;28;20034;-63
2022/04/22 00:33:35;;;;;;;15.93;9.27;;;;;;;;;;5026448;28;20030;-63
2022/04/22 00:36:00;;;;;;;15.15;8.82;;;;;;;;;;5028788;28;20387;-63
2022/04/22 00:38:26;;;;;;;14.77;9.20;;;;;;;;;;5012573;28;20124;-64
2022/04/22 00:40:55;;;;;;;15.85;8.70;;;;;;;;;;5028586;28;20033;-64
2022/04/22 00:43:22;;;;;;;14.13;8.75;;;;;;;;;;5026614;28;20112;-64
2022/04/22 00:45:49;;;;;;;13.95;8.45;;;;;;;;;;5029142;28;20136;-63
2022/04/22 00:48:19;;;;;;;13.10;8.50;;;;;;;;;;5028582;28;20045;-64
2022/04/22 00:50:45;;;;;;;16.55;8.52;;;;;;;;;;5017122;28;20037;-64
2022/04/22 00:53:11;;;;;;;15.85;8.98;;;;;;;;;;5033181;28;20037;-63
2022/04/22 00:55:39;;;;;;;12.90;8.50;;;;;;;;;;5023418;28;20033;-63
2022/04/22 00:58:05;;;;;;;18.35;9.07;;;;;;;;;;5037187;28;20060;-63
2022/04/22 01:00:31;;;;;;;13.85;8.57;;;;;;;;;;5040439;28;20068;-63
2022/04/22 01:02:56;;;;;;;14.70;9.00;;;;;;;;;;5040091;28;20646;-63
2022/04/22 01:10:53;;;;;;;13.73;8.80;;;;;;;;;;5029140;28;20107;-64
2022/04/22 01:13:18;;;;;;;16.38;8.32;;;;;;;;;;5031230;28;20452;-64
2022/04/22 01:15:43;;;;;;;13.70;8.60;;;;;;;;;;5018600;28;20526;-63
2022/04/22 01:18:10;;;;;;;13.73;8.65;;;;;;;;;;5021194;28;20033;-63
2022/04/22 01:20:35;;;;;;;14.07;8.82;;;;;;;;;;5027022;28;20029;-63
2022/04/22 01:23:01;;;;;;;13.57;8.40;;;;;;;;;;5026123;28;20056;-63
2022/04/22 01:25:26;;;;;;;14.10;8.73;;;;;;;;;;5028298;28;20064;-63
2022/04/22 01:27:52;;;;;;;14.70;8.80;;;;;;;;;;5017458;28;20407;-63
2022/04/22 01:30:21;;;;;;;14.43;9.10;;;;;;;;;;5025795;28;20072;-63
2022/04/22 01:32:51;;;;;;;13.77;9.15;;;;;;;;;;5027906;28;20033;-63
2022/04/22 01:35:20;;;;;;;14.10;8.60;;;;;;;;;;5026198;28;20034;-62
2022/04/22 01:37:46;;;;;;;13.43;8.73;;;;;;;;;;5014854;28;21596;-63
2022/04/22 01:40:13;;;;;;;18.83;9.48;;;;;;;;;;5025442;28;20036;-64
2022/04/22 01:42:38;;;;;;;15.07;9.15;;;;;;;;;;5010825;28;20124;-64
2022/04/22 01:45:05;;;;;;;17.20;9.55;;;;;;;;;;5026891;28;20125;-64
2022/04/22 01:47:31;;;;;;;15.05;9.57;;;;;;;;;;5029684;28;20025;-62
2022/04/22 01:49:56;;;;;;;14.88;9.30;;;;;;;;;;5018943;28;20042;-64
2022/04/22 01:52:23;;;;;;;15.90;9.18;;;;;;;;;;5011969;28;20580;-64
2022/04/22 01:54:52;;;;;;;16.67;9.45;;;;;;;;;;5025723;28;20104;-64
2022/04/22 01:57:18;;;;;;;17.45;9.70;;;;;;;;;;5025717;28;20100;-63
2022/04/22 01:59:44;;;;;;;15.20;9.77;;;;;;;;;;5033010;28;20063;-64
2022/04/22 02:02:13;;;;;;;14.48;9.90;;;;;;;;;;5017737;28;20033;-64
2022/04/22 02:04:39;;;;;;;15.55;9.35;;;;;;;;;;5025996;28;20033;-63
2022/04/22 02:07:05;;;;;;;16.70;9.73;;;;;;;;;;5009576;28;20395;-63
2022/04/22 02:09:30;;;;;;;15.25;9.85;;;;;;;;;;5042588;28;20038;-63
2022/04/22 02:11:58;;;;;;;16.15;9.32;;;;;;;;;;5011147;28;20056;-63
2022/04/22 02:14:25;;;;;;;15.65;9.80;;;;;;;;;;5011833;28;20484;-63
2022/04/22 02:16:51;;;;;;;18.23;10.27;;;;;;;;;;5011344;28;20100;-63
2022/04/22 02:19:17;;;;;;;15.40;9.82;;;;;;;;;;5010746;28;20701;-64
2022/04/22 02:21:43;;;;;;;19.58;10.30;;;;;;;;;;5031822;28;20045;-63
2022/04/22 02:24:09;;;;;;;19.85;10.43;;;;;;;;;;5022080;28;20042;-63
2022/04/22 02:28:31;;;;;;;16.85;10.15;;;;;;;;;;5022636;28;20041;-64
2022/04/22 02:29:20;;;;;;;18.08;10.82;;;;;;;;;;5012554;28;20042;-63
2022/04/22 02:31:46;;;;;;;17.48;10.88;;;;;;;;;;5015077;28;20030;-63
2022/04/22 02:34:11;;;;;;;18.23;10.68;;;;;;;;;;5030091;28;20064;-63
2022/04/22 02:36:37;;;;;;;18.05;10.70;;;;;;;;;;5024839;28;20033;-64
2022/04/22 02:39:02;;;;;;;19.63;11.73;;;;;;;;;;5017686;28;20025;-64
2022/04/22 02:46:55;;;;;;;20.33;11.75;;;;;;;;;;5013301;28;20078;-63
2022/04/22 02:49:21;;;;;;;22.15;12.15;;;;;;;;;;5030593;28;20029;-63
2022/04/22 02:51:46;;;;;;;21.85;11.63;;;;;;;;;;5021249;28;20088;-63
2022/04/22 02:54:12;;;;;;;20.45;12.32;;;;;;;;;;5016979;28;20059;-64
2022/04/22 02:56:38;;;;;;;19.27;12.20;;;;;;;;;;5029196;28;20033;-63
2022/04/22 02:59:04;;;;;;;20.75;12.32;;;;;;;;;;5030280;28;20026;-63
2022/04/22 03:01:30;;;;;;;19.40;12.32;;;;;;;;;;5015128;28;20511;-63
2022/04/22 03:03:55;;;;;;;20.38;13.05;;;;;;;;;;5029120;28;20121;-63
2022/04/22 03:06:23;;;;;;;24.33;13.27;;;;;;;;;;5025257;28;20068;-63
2022/04/22 03:08:48;;;;;;;21.48;13.38;;;;;;;;;;5010468;28;20041;-63
2022/04/22 03:11:21;;;;;;;24.92;14.00;;;;;;;;;;5043093;28;20076;-63
2022/04/22 03:13:49;;;;;;;22.20;13.90;;;;;;;;;;5030851;28;20033;-63
2022/04/22 03:16:16;;;;;;;26.27;14.13;;;;;;;;;;5037879;28;20124;-64
2022/04/22 03:18:41;;;;;;;24.95;14.40;;;;;;;;;;5013797;28;20037;-64
2022/04/22 03:21:08;;;;;;;23.00;13.70;;;;;;;;;;5007041;28;20454;-64
2022/04/22 03:23:33;;;;;;;24.33;14.40;;;;;;;;;;5027272;28;20049;-63
2022/04/22 03:25:59;;;;;;;26.98;14.75;;;;;;;;;;5039155;28;20021;-63
2022/04/22 03:28:24;;;;;;;27.38;15.65;;;;;;;;;;5027475;28;20077;-64
2022/04/22 03:30:50;;;;;;;25.98;15.85;;;;;;;;;;5024067;28;20090;-63
2022/04/22 03:33:17;;;;;;;25.75;15.40;;;;;;;;;;5035069;28;20072;-64
2022/04/22 03:35:43;;;;;;;27.17;15.63;;;;;;;;;;5027624;28;20021;-64
2022/04/22 03:38:11;;;;;;;26.23;15.38;;;;;;;;;;5027260;28;20073;-64
2022/04/22 03:40:36;;;;;;;28.40;16.52;;;;;;;;;;5024464;28;20529;-64
2022/04/22 03:43:02;;;;;;;29.13;16.67;;;;;;;;;;5023774;28;20106;-65
2022/04/22 03:45:28;;;;;;;29.50;16.60;;;;;;;;;;5053332;28;20040;-64
2022/04/22 03:47:54;;;;;;;26.33;16.08;;;;;;;;;;5038471;28;20025;-64
2022/04/22 03:50:19;;;;;;;28.70;16.70;;;;;;;;;;5048744;28;20033;-64
2022/04/22 03:52:45;;;;;;;30.58;16.88;;;;;;;;;;5028887;28;20040;-63
2022/04/22 03:55:10;;;;;;;27.75;16.77;;;;;;;;;;5014800;28;20475;-64
2022/04/22 04:00:20;;;;;;;30.88;17.45;;;;;;;;;;5016339;28;20119;-63
2022/04/22 04:02:45;;;;;;;30.33;17.40;;;;;;;;;;5017508;28;20037;-62
2022/04/22 04:05:11;;;;;;;32.10;17.92;;;;;;;;;;5033148;28;20482;-63
2022/04/22 04:07:36;;;;;;;33.75;18.58;;;;;;;;;;5048483;28;20033;-63
2022/04/22 04:18:13;;;;;;;34.03;18.95;;;;;;;;;;5020829;28;20098;-63
2022/04/22 04:23:23;;;;;;;32.80;18.95;;;;;;;;;;5032700;28;20112;-63
2022/04/22 04:25:50;;;;;;;33.42;18.88;;;;;;;;;;5026594;28;20022;-63
2022/04/22 04:28:17;;;;;;;34.15;19.80;;;;;;;;;;5013884;28;20501;-63
2022/04/22 04:30:45;;;;;;;33.00;18.92;;;;;;;;;;5029189;28;20045;-64
2022/04/22 04:33:10;;;;;;;32.95;19.15;;;;;;;;;;5016534;28;20406;-62
2022/04/22 04:35:38;;;;;;;36.22;20.55;;;;;;;;;;5042899;28;20438;-63
2022/04/22 04:38:05;;;;;;;33.20;19.23;;;;;;;;;;5029423;28;20467;-63
2022/04/22 04:40:32;;;;;;;29.08;18.70;;;;;;;;;;5026002;28;20056;-63
2022/04/22 04:42:57;;;;;;;32.42;18.58;;;;;;;;;;5026937;28;20462;-63
2022/04/22 04:45:23;;;;;;;32.15;19.08;;;;;;;;;;5026712;28;20470;-63
2022/04/22 04:47:48;;;;;;;32.28;19.08;;;;;;;;;;5026600;28;20052;-63
2022/04/22 04:50:13;;;;;;;30.65;18.83;;;;;;;;;;5027124;28;20052;-63
2022/04/22 04:52:40;;;;;;;31.20;18.70;;;;;;;;;;5033050;28;20402;-64
2022/04/22 04:55:08;;;;;;;31.88;18.75;;;;;;;;;;5035458;28;20044;-63
2022/04/22 04:57:33;;;;;;;29.15;17.05;;;;;;;;;;5039347;28;20061;-64
2022/04/22 04:59:59;;;;;;;28.40;18.13;;;;;;;;;;5052129;28;20459;-63
2022/04/22 05:02:25;;;;;;;28.08;17.38;;;;;;;;;;5043783;28;20467;-63
2022/04/22 05:04:50;;;;;;;29.13;17.85;;;;;;;;;;5024942;28;20036;-63
2022/04/22 05:07:16;;;;;;;29.70;17.27;;;;;;;;;;5026019;28;20411;-63
2022/04/22 05:09:41;;;;;;;26.42;17.30;;;;;;;;;;5035480;28;20434;-63
2022/04/22 05:12:07;;;;;;;27.08;16.45;;;;;;;;;;5029068;28;20028;-63
2022/04/22 05:14:32;;;;;;;25.13;16.15;;;;;;;;;;5049313;28;20052;-63
2022/04/22 05:16:59;;;;;;;28.25;16.45;;;;;;;;;;5033218;28;20040;-63
2022/04/22 05:19:24;;;;;;;24.00;15.52;;;;;;;;;;5032698;28;20025;-64
2022/04/22 05:21:50;;;;;;;24.38;16.45;;;;;;;;;;5027411;28;20388;-64
2022/04/22 05:24:15;;;;;;;24.77;15.55;;;;;;;;;;5032673;28;20043;-63
2022/04/22 05:26:41;;;;;;;24.85;15.50;;;;;;;;;;5029228;28;20045;-64
2022/04/22 05:32:36;;;;;;;23.63;15.13;;;;;;;;;;5031191;28;20053;-63
2022/04/22 05:34:39;;;;;;;24.35;15.27;;;;;;;;;;5051182;28;20449;-63
2022/04/22 05:37:04;;;;;;;30.48;14.93;;;;;;;;;;5043316;28;20045;-63
2022/04/22 05:39:30;;;;;;;21.50;14.52;;;;;;;;;;5028073;28;20036;-62
2022/04/22 05:41:55;;;;;;;24.13;15.15;;;;;;;;;;5051541;28;20038;-63
2022/04/22 05:44:21;;;;;;;22.58;13.55;;;;;;;;;;5046841;28;20057;-62
2022/04/22 05:46:46;;;;;;;21.08;14.05;;;;;;;;;;5051164;28;20025;-63
2022/04/22 05:49:11;;;;;;;21.05;13.73;;;;;;;;;;5046706;28;20613;-62
2022/04/22 05:51:37;;;;;;;23.15;14.30;;;;;;;;;;5052009;28;20024;-62
2022/04/22 05:54:02;;;;;;;22.55;12.95;;;;;;;;;;5048410;28;20408;-63
2022/04/22 05:56:29;;;;;;;19.90;13.48;;;;;;;;;;5024665;28;20403;-63
2022/04/22 05:58:55;;;;;;;19.88;13.55;;;;;;;;;;5048906;28;20044;-62
2022/04/22 06:01:22;;;;;;;18.60;13.10;;;;;;;;;;5043806;28;20513;-63
2022/04/22 06:03:48;;;;;;;19.52;12.82;;;;;;;;;;5034061;28;20117;-63
2022/04/22 06:06:13;;;;;;;20.40;13.30;;;;;;;;;;5029600;28;20150;-63
2022/04/22 06:11:22;;;;;;;20.17;12.82;;;;;;;;;;5049114;28;20110;-63
2022/04/22 06:13:47;;;;;;;19.60;12.93;;;;;;;;;;5051746;28;20451;-63
2022/04/22 06:16:14;;;;;;;19.58;12.73;;;;;;;;;;5015851;28;20034;-63
2022/04/22 06:18:39;;;;;;;19.83;12.75;;;;;;;;;;5025269;28;20032;-63
2022/04/22 06:21:04;;;;;;;21.17;12.48;;;;;;;;;;5029475;28;20033;-63
2022/04/22 06:23:30;;;;;;;20.23;12.85;;;;;;;;;;5037284;28;20049;-63
2022/04/22 06:25:55;;;;;;;19.80;11.73;;;;;;;;;;5040973;28;20402;-63
2022/04/22 06:28:20;;;;;;;18.85;12.82;;;;;;;;;;5040265;28;20064;-63
2022/04/22 06:30:47;;;;;;;18.10;12.60;;;;;;;;;;5030716;28;20065;-63
2022/04/22 06:33:13;;;;;;;19.65;12.73;;;;;;;;;;5027311;28;20474;-63
2022/04/22 06:35:38;;;;;;;19.40;13.18;;;;;;;;;;5039619;28;20112;-63
2022/04/22 06:38:07;;;;;;;20.25;12.93;;;;;;;;;;5045360;28;20061;-62
2022/04/22 06:46:00;;;;;;;17.85;12.40;;;;;;;;;;5013381;28;20399;-64
2022/04/22 06:48:33;;;;;;;16.90;12.00;;;;;;;;;;5027781;28;20021;-63
2022/04/22 06:51:00;;;;;;;19.30;12.68;;;;;;;;;;5043129;28;20159;-63
2022/04/22 06:53:26;;;;;;;19.50;12.35;;;;;;;;;;5037973;28;20032;-62
2022/04/22 06:55:53;;;;;;;17.73;12.70;;;;;;;;;;5047542;28;20036;-62
2022/04/22 06:58:20;;;;;;;19.17;12.82;;;;;;;;;;5030187;28;20041;-62
2022/04/22 07:00:47;;;;;;;17.92;13.05;;;;;;;;;;5015830;28;20040;-64
2022/04/22 07:03:14;;;;;;;17.98;12.57;;;;;;;;;;5033922;28;20034;-63
2022/04/22 07:05:41;;;;;;;19.30;13.23;;;;;;;;;;5010527;28;20038;-63
2022/04/22 07:08:13;;;;;;;18.40;12.65;;;;;;;;;;5044479;28;20033;-63
2022/04/22 07:10:39;;;;;;;19.90;13.02;;;;;;;;;;5049594;28;20036;-62
2022/04/22 07:13:05;;;;;;;17.70;11.77;;;;;;;;;;5030993;28;20035;-63
2022/04/22 07:15:31;;;;;;;18.05;12.52;;;;;;;;;;5043489;28;20029;-62
2022/04/22 07:17:56;;;;;;;19.40;12.52;;;;;;;;;;5053922;28;20037;-62
2022/04/22 07:20:22;;;;;;;17.98;12.48;;;;;;;;;;5043260;28;20059;-63
2022/04/22 07:22:48;;;;;;;18.65;12.57;;;;;;;;;;5048416;28;20051;-63
2022/04/22 07:25:14;;;;;;;17.90;12.80;;;;;;;;;;5049464;28;20108;-62
2022/04/22 07:27:43;;;;;;;17.40;12.73;;;;;;;;;;5051512;28;20037;-62
2022/04/22 07:30:11;;;;;;;19.90;12.63;;;;;;;;;;5050634;28;20066;-62
2022/04/22 07:32:38;;;;;;;19.45;12.77;;;;;;;;;;5043344;28;20036;-62
2022/04/22 07:35:11;;;;;;;18.73;12.57;;;;;;;;;;5047909;28;20068;-62
2022/04/22 07:37:41;;;;;;;20.77;13.10;;;;;;;;;;5034926;28;20167;-63
2022/04/22 07:40:07;;;;;;;19.63;13.02;;;;;;;;;;5031716;28;20041;-63
2022/04/22 07:42:35;;;;;;;20.88;12.80;;;;;;;;;;5040051;28;20100;-64
2022/04/22 07:47:48;;;;;;;18.73;12.68;;;;;;;;;;5034535;28;20068;-63
2022/04/22 07:50:15;;;;;;;20.45;12.43;;;;;;;;;;5031725;28;20065;-63
2022/04/22 07:52:44;;;;;;;19.35;13.30;;;;;;;;;;5036312;28;20120;-63
2022/04/22 07:55:10;;;;;;;18.77;13.38;;;;;;;;;;5029723;28;20052;-63
2022/04/22 07:57:35;;;;;;;20.33;13.20;;;;;;;;;;5040000;28;20162;-62
2022/04/22 08:00:01;;;;;;;19.00;13.73;;;;;;;;;;5032126;28;20064;-62
2022/04/22 08:02:26;;;;;;;20.85;13.88;;;;;;;;;;5043769;28;20045;-62
2022/04/22 08:04:52;;;;;;;19.55;13.35;;;;;;;;;;5033856;28;20092;-62
2022/04/22 08:07:18;;;;;;;18.85;13.27;;;;;;;;;;5049038;28;20029;-62
2022/04/22 08:09:45;;;;;;;18.85;12.77;;;;;;;;;;5050049;28;20078;-62
2022/04/22 08:12:12;;;;;;;18.23;12.50;;;;;;;;;;5018254;28;20033;-63
2022/04/22 08:14:38;;;;;;;17.45;13.10;;;;;;;;;;5041209;28;20025;-62
2022/04/22 08:17:04;;;;;;;20.60;12.88;;;;;;;;;;5050846;28;20047;-62
2022/04/22 08:19:29;;;;;;;17.67;12.90;;;;;;;;;;5048606;28;20953;-62
2022/04/22 08:21:55;;;;;;;20.38;12.95;;;;;;;;;;5048447;28;20041;-62
2022/04/22 08:24:20;;;;;;;18.45;13.35;;;;;;;;;;5048521;28;20722;-63
2022/04/22 08:26:46;;;;;;;19.08;13.50;;;;;;;;;;5037550;28;20033;-64
2022/04/22 08:29:11;;;;;;;19.38;13.05;;;;;;;;;;5034596;28;20447;-63
2022/04/22 08:31:37;;;;;;;17.38;12.93;;;;;;;;;;5035939;28;20514;-62
2022/04/22 08:34:02;;;;;;;20.98;14.05;;;;;;;;;;5037443;28;20040;-62
2022/04/22 08:36:29;;;;;;;20.13;13.63;;;;;;;;;;5043762;28;20029;-62
2022/04/22 08:38:56;;;;;;;19.98;13.93;;;;;;;;;;5028432;28;20066;-62
2022/04/22 08:41:22;;;;;;;20.77;14.32;;;;;;;;;;5032147;28;20037;-62
2022/04/22 08:43:51;;;;;;;18.98;13.50;;;;;;;;;;5035499;28;20033;-62
2022/04/22 08:51:45;;;;;;;18.33;13.50;;;;;;;;;;5042130;28;20493;-62
2022/04/22 08:54:13;;;;;;;18.23;14.10;;;;;;;;;;5049203;28;20025;-62
2022/04/22 08:56:39;;;;;;;21.20;14.55;;;;;;;;;;5032352;28;20108;-63
2022/04/22 08:59:05;;;;;;;21.08;14.32;;;;;;;;;;5043268;28;20043;-63
2022/04/22 09:01:31;;;;;;;21.25;14.93;;;;;;;;;;5030738;28;20053;-63
2022/04/22 09:03:56;;;;;;;19.58;14.40;;;;;;;;;;5038012;28;20438;-62
2022/04/22 09:06:25;;;;;;;19.90;14.45;;;;;;;;;;5036420;28;20854;-62
2022/04/22 09:08:51;;;;;;;19.33;14.70;;;;;;;;;;5037418;28;20075;-63
2022/04/22 09:11:17;;;;;;;18.55;14.02;;;;;;;;;;5032174;28;20536;-63
2022/04/22 09:13:42;;;;;;;20.60;13.98;;;;;;;;;;5038778;28;20021;-62
2022/04/22 09:16:18;;;;;;;18.40;13.32;;;;;;;;;;5041443;28;20068;-62
2022/04/22 09:18:45;;;;;;;18.50;12.93;;;;;;;;;;5036525;28;20033;-63
2022/04/22 09:21:18;;;;;;;18.20;12.82;;;;;;;;;;5046247;28;20028;-63
2022/04/22 09:23:46;;;;;;;17.48;12.18;;;;;;;;;;5042459;28;20072;-63
2022/04/22 09:26:25;;;;;;;17.75;12.68;;;;;;;;;;5035503;28;20428;-63
2022/04/22 09:29:05;;;;;;;15.10;11.15;;;;;;;;;;5029409;28;20040;-64
2022/04/22 09:31:44;;;;;;;14.63;10.48;;;;;;;;;;5016129;28;20062;-63
2022/04/22 09:34:09;;;;;;;15.77;11.82;;;;;;;;;;5041413;28;20761;-64
2022/04/22 09:45:00;;;;;;;13.13;10.00;;;;;;;;;;5032075;28;20075;-63
2022/04/22 09:47:27;;;;;;;13.82;9.95;;;;;;;;;;5031160;28;20025;-63
2022/04/22 09:49:54;;;;;;;13.45;10.45;;;;;;;;;;5031538;28;20034;-63
2022/04/22 09:52:26;;;;;;;15.43;10.48;;;;;;;;;;5029150;28;20120;-63
2022/04/22 09:54:56;;;;;;;14.90;10.38;;;;;;;;;;5017833;28;20059;-62
2022/04/22 09:57:22;;;;;;;15.75;10.15;;;;;;;;;;5030326;28;20044;-63
2022/04/22 09:59:47;;;;;;;14.57;9.65;;;;;;;;;;5031845;28;20037;-62
2022/04/22 10:02:19;;;;;;;16.08;10.13;;;;;;;;;;5031025;28;20033;-63
2022/04/22 10:04:45;;;;;;;13.98;10.50;;;;;;;;;;5031977;28;20391;-64
2022/04/22 10:07:11;;;;;;;14.20;10.10;;;;;;;;;;5030145;28;20116;-63
2022/04/22 10:09:38;;;;;;;12.85;9.90;;;;;;;;;;5014170;28;20029;-63
2022/04/22 10:12:08;;;;;;;13.60;10.60;;;;;;;;;;5032265;28;20033;-63
2022/04/22 10:14:38;;;;;;;14.47;10.87;;;;;;;;;;5031626;28;20096;-63
2022/04/22 10:17:05;;;;;;;14.45;10.15;;;;;;;;;;5031811;28;20079;-63
2022/04/22 10:19:32;;;;;;;13.68;9.93;;;;;;;;;;5031757;28;20033;-63
2022/04/22 10:21:59;;;;;;;13.93;10.25;;;;;;;;;;5026883;28;20052;-63
2022/04/22 10:24:26;;;;;;;14.68;10.95;;;;;;;;;;5035284;28;20044;-63
2022/04/22 10:26:52;;;;;;;17.07;11.23;;;;;;;;;;5040373;28;20037;-63
2022/04/22 10:29:19;;;;;;;14.82;10.55;;;;;;;;;;5030951;28;20033;-63
2022/04/22 10:31:45;;;;;;;14.73;10.60;;;;;;;;;;5031850;28;20108;-63
2022/04/22 10:34:11;;;;;;;16.30;11.13;;;;;;;;;;5030626;28;20040;-63
2022/04/22 10:36:38;;;;;;;16.35;11.18;;;;;;;;;;5031510;28;20109;-63
2022/04/22 10:39:04;;;;;;;15.60;10.82;;;;;;;;;;5030481;28;20037;-64
2022/04/22 10:41:43;;;;;;;15.98;11.20;;;;;;;;;;5030314;28;20017;-64
2022/04/22 10:47:13;;;;;;;13.13;9.75;;;;;;;;;;5037720;28;20471;-64
2022/04/22 10:49:43;;;;;;;14.50;10.90;;;;;;;;;;5053935;28;20032;-63
2022/04/22 10:52:11;;;;;;;15.73;10.00;;;;;;;;;;5031430;28;20075;-63
2022/04/22 10:54:55;;;;;;;14.27;10.13;;;;;;;;;;5033747;28;20041;-63
2022/04/22 10:57:21;;;;;;;14.15;10.48;;;;;;;;;;5032336;28;20025;-63
2022/04/22 11:00:03;;;;;;;15.45;11.55;;;;;;;;;;5030811;28;20032;-63
2022/04/22 11:02:34;;;;;;;14.45;10.90;;;;;;;;;;5017896;28;20109;-63
2022/04/22 11:05:20;;;;;;;15.05;11.38;;;;;;;;;;5042833;28;20033;-64
2022/04/22 11:07:57;;;;;;;17.20;11.82;;;;;;;;;;5034904;28;20117;-64
2022/04/22 11:10:49;;;;;;;16.70;11.40;;;;;;;;;;5016447;28;20030;-62
2022/04/22 11:13:38;;;;;;;19.05;11.90;;;;;;;;;;5028459;28;20029;-61
2022/04/22 11:16:15;;;;;;;17.75;11.07;;;;;;;;;;5032785;28;20075;-62
2022/04/22 11:18:45;;;;;;;16.33;11.55;;;;;;;;;;5015205;28;20128;-62
2022/04/22 11:21:33;;;;;;;17.00;11.13;;;;;;;;;;5051305;28;20094;-61
2022/04/22 11:23:59;;;;;;;16.10;10.27;;;;;;;;;;5048398;28;20119;-62
2022/04/22 11:26:25;;;;;;;14.48;10.35;;;;;;;;;;5030601;28;20108;-61
2022/04/22 11:28:51;;;;;;;13.48;10.18;;;;;;;;;;5030103;28;20128;-61
2022/04/22 11:31:18;;;;;;;18.02;10.65;;;;;;;;;;5033755;28;20152;-61
2022/04/22 11:33:57;;;;;;;16.50;10.50;;;;;;;;;;5037889;28;20104;-61
2022/04/22 11:36:26;;;;;;;15.98;10.77;;;;;;;;;;5023019;28;20087;-63
2022/04/22 11:38:53;;;;;;;13.77;10.50;;;;;;;;;;5049544;28;20120;-62
2022/04/22 11:41:19;;;;;;;15.95;10.50;;;;;;;;;;5037555;28;20025;-63
2022/04/22 11:43:46;;;;;;;16.08;10.90;;;;;;;;;;5016948;28;20478;-62
2022/04/22 11:46:13;;;;;;;18.08;11.80;;;;;;;;;;5049168;28;20068;-62
2022/04/22 11:48:49;;;;;;;17.58;11.55;;;;;;;;;;5051347;28;20375;-63
2022/04/22 11:51:17;;;;;;;16.25;11.68;;;;;;;;;;5054232;28;20061;-60
2022/04/22 11:53:50;;;;;;;16.92;11.70;;;;;;;;;;5047664;28;20494;-62
2022/04/22 11:56:18;;;;;;;17.50;11.77;;;;;;;;;;5029991;28;20033;-62
2022/04/22 11:58:43;;;;;;;18.15;11.50;;;;;;;;;;5019326;28;20029;-63
2022/04/22 12:06:40;;;;;;;16.38;10.70;;;;;;;;;;5024859;28;20557;-61
2022/04/22 12:09:06;;;;;;;15.27;10.70;;;;;;;;;;5024109;28;20487;-62
2022/04/22 12:11:43;;;;;;;14.25;9.60;;;;;;;;;;5036350;28;20442;-62
2022/04/22 12:14:10;;;;;;;13.43;10.35;;;;;;;;;;5051627;28;20061;-62
2022/04/22 12:16:36;;;;;;;15.75;10.35;;;;;;;;;;5019917;28;20056;-62
2022/04/22 12:19:02;;;;;;;17.17;10.75;;;;;;;;;;5018366;28;20188;-62
2022/04/22 12:21:33;;;;;;;14.90;10.25;;;;;;;;;;5030073;28;20117;-62
2022/04/22 12:24:04;;;;;;;14.43;10.52;;;;;;;;;;5033610;28;20075;-62
2022/04/22 12:26:34;;;;;;;15.82;10.65;;;;;;;;;;5031952;28;20064;-62
2022/04/22 12:29:09;;;;;;;14.50;10.27;;;;;;;;;;5026480;28;20033;-62
2022/04/22 12:31:39;;;;;;;15.27;10.73;;;;;;;;;;5022472;28;20548;-63
2022/04/22 12:34:08;;;;;;;17.05;10.40;;;;;;;;;;5033975;28;20033;-63
2022/04/22 12:36:59;;;;;;;14.43;10.47;;;;;;;;;;5041820;28;20749;-62
2022/04/22 12:39:40;;;;;;;14.48;9.88;;;;;;;;;;5026729;28;20034;-62
2022/04/22 12:42:07;;;;;;;14.77;10.32;;;;;;;;;;5032247;28;20038;-62
2022/04/22 12:44:32;;;;;;;14.02;9.93;;;;;;;;;;5015061;28;20034;-62
2022/04/22 12:52:34;;;;;;;12.02;9.23;;;;;;;;;;5013014;28;20068;-62
2022/04/22 12:55:08;;;;;;;12.07;9.65;;;;;;;;;;5028819;28;20045;-62
2022/04/22 12:57:34;;;;;;;13.00;9.60;;;;;;;;;;5052284;28;20029;-62
2022/04/22 12:59:59;;;;;;;13.05;9.40;;;;;;;;;;5047149;28;20124;-62
2022/04/22 13:02:35;;;;;;;18.40;10.52;;;;;;;;;;5031785;28;20029;-62
2022/04/22 13:05:03;;;;;;;12.70;9.50;;;;;;;;;;5033206;28;20064;-62
2022/04/22 13:07:40;;;;;;;12.60;9.70;;;;;;;;;;5031282;28;20464;-62
2022/04/22 13:10:07;;;;;;;11.90;8.88;;;;;;;;;;5035105;28;20481;-62
2022/04/22 13:12:38;;;;;;;13.32;9.45;;;;;;;;;;5030825;28;20029;-62
2022/04/22 13:15:04;;;;;;;14.32;9.77;;;;;;;;;;5023965;28;20030;-62
2022/04/22 13:17:30;;;;;;;13.07;9.40;;;;;;;;;;5012461;28;20041;-62
2022/04/22 13:19:55;;;;;;;11.75;8.98;;;;;;;;;;5025418;28;20258;-63
2022/04/22 13:22:21;;;;;;;14.27;9.00;;;;;;;;;;5051880;28;20045;-62
2022/04/22 13:24:47;;;;;;;13.07;9.18;;;;;;;;;;5045611;28;20083;-62
2022/04/22 13:27:13;;;;;;;14.65;8.93;;;;;;;;;;5040171;28;20368;-62
2022/04/22 13:29:40;;;;;;;13.68;9.15;;;;;;;;;;5027038;28;20151;-61
2022/04/22 13:32:06;;;;;;;11.57;8.52;;;;;;;;;;5018371;28;20034;-63
2022/04/22 13:34:31;;;;;;;12.25;8.50;;;;;;;;;;5022470;28;20040;-63
2022/04/22 13:36:57;;;;;;;11.30;8.40;;;;;;;;;;5025673;28;20045;-62
2022/04/22 13:39:22;;;;;;;11.13;7.53;;;;;;;;;;5031660;28;20033;-63
2022/04/22 13:41:48;;;;;;;9.38;7.10;;;;;;;;;;5032531;28;20039;-63
2022/04/22 13:44:13;;;;;;;13.30;7.60;;;;;;;;;;5026683;28;20088;-63
2022/04/22 13:52:21;;;;;;;11.15;7.43;;;;;;;;;;5027824;28;20040;-62
2022/04/22 13:54:47;;;;;;;10.73;7.57;;;;;;;;;;5023826;28;20038;-63
2022/04/22 13:57:13;;;;;;;11.60;8.23;;;;;;;;;;5012517;28;20048;-63
2022/04/22 13:59:38;;;;;;;13.93;8.40;;;;;;;;;;5020665;28;20107;-62
2022/04/22 14:02:04;;;;;;;11.25;7.90;;;;;;;;;;5030800;28;20111;-62
2022/04/22 14:04:34;;;;;;;10.98;8.30;;;;;;;;;;5011206;28;20065;-62
2022/04/22 14:06:59;;;;;;;12.65;8.77;;;;;;;;;;5012214;28;20472;-62
2022/04/22 14:09:25;;;;;;;14.30;8.98;;;;;;;;;;5011949;28;20048;-62
2022/04/22 14:11:50;;;;;;;11.38;8.80;;;;;;;;;;5051754;28;20120;-62
2022/04/22 14:14:15;;;;;;;10.82;8.15;;;;;;;;;;5043304;28;20032;-62
2022/04/22 14:16:41;;;;;;;10.77;8.70;;;;;;;;;;5031190;28;20021;-62
2022/04/22 14:19:07;;;;;;;11.02;8.57;;;;;;;;;;5039833;28;20036;-63
2022/04/22 14:21:33;;;;;;;11.05;8.85;;;;;;;;;;5035783;28;20054;-63
2022/04/22 14:24:00;;;;;;;12.27;8.77;;;;;;;;;;5039681;28;20466;-60
2022/04/22 14:26:26;;;;;;;11.75;9.38;;;;;;;;;;5028280;28;20466;-60
2022/04/22 14:28:51;;;;;;;10.55;8.65;;;;;;;;;;5040392;28;20036;-61
2022/04/22 14:31:17;;;;;;;11.15;9.02;;;;;;;;;;5023933;28;20176;-61
2022/04/22 14:33:43;;;;;;;11.20;8.60;;;;;;;;;;5025341;28;20184;-61
2022/04/22 14:36:08;;;;;;;12.00;8.90;;;;;;;;;;5029740;28;20037;-61
2022/04/22 14:38:34;;;;;;;11.68;8.75;;;;;;;;;;5047185;28;20454;-60
2022/04/22 14:41:00;;;;;;;13.45;8.88;;;;;;;;;;5047622;28;20029;-60
2022/04/22 14:43:25;;;;;;;13.05;8.60;;;;;;;;;;5022527;28;20033;-61
2022/04/22 14:45:51;;;;;;;10.75;9.00;;;;;;;;;;5041470;28;20022;-61
2022/04/22 14:48:16;;;;;;;11.50;9.32;;;;;;;;;;5026043;28;20040;-60
2022/04/22 14:50:42;;;;;;;12.10;9.50;;;;;;;;;;5020488;28;20029;-60
2022/04/22 14:53:07;;;;;;;12.65;9.70;;;;;;;;;;5040476;28;20049;-60
2022/04/22 14:55:35;;;;;;;11.77;9.68;;;;;;;;;;5045577;28;20043;-60
2022/04/22 14:58:02;;;;;;;12.40;9.35;;;;;;;;;;5034871;28;20042;-60
2022/04/22 15:00:28;;;;;;;10.70;9.10;;;;;;;;;;5045523;28;20025;-60
2022/04/22 15:02:53;;;;;;;11.20;9.35;;;;;;;;;;5018612;28;20029;-60
2022/04/22 15:05:19;;;;;;;15.82;9.27;;;;;;;;;;5011734;28;20053;-60
2022/04/22 15:07:47;;;;;;;11.50;9.25;;;;;;;;;;5025515;28;20566;-60
2022/04/22 15:10:13;;;;;;;10.55;8.82;;;;;;;;;;5044979;28;20034;-60
2022/04/22 15:12:38;;;;;;;12.98;8.73;;;;;;;;;;5031517;28;20039;-63
2022/04/22 15:15:04;;;;;;;12.20;8.98;;;;;;;;;;5032014;28;20047;-60
2022/04/22 15:25:42;;;;;;;12.32;9.98;;;;;;;;;;5028520;28;20056;-60
2022/04/22 15:28:07;;;;;;;11.07;9.00;;;;;;;;;;5017875;28;20034;-60
2022/04/22 15:31:06;;;;;;;13.90;9.20;;;;;;;;;;5024483;28;20033;-60
2022/04/22 15:33:32;;;;;;;13.23;8.88;;;;;;;;;;5027588;28;20068;-60
2022/04/22 15:36:03;;;;;;;12.05;9.40;;;;;;;;;;5040086;28;20479;-60
2022/04/22 15:38:41;;;;;;;10.80;9.05;;;;;;;;;;5015043;28;20026;-61
2022/04/22 15:41:08;;;;;;;11.48;9.13;;;;;;;;;;5032579;28;20137;-60
2022/04/22 15:43:38;;;;;;;13.45;9.80;;;;;;;;;;5033531;28;20030;-61